sensor_id;sensor_type;location;lat;lon;timestamp;P1;durP1;ratioP1;P2;durP2;ratioP2
6483;SDS011;3275;52.376;9.694;2023-11-21T06:55:08;9.17;;;5.40;;
6483;SDS011;3275;52.376;9.694;2023-11-21T06:57:35;5.40;;;3.77;;
6483;SDS011;3275;52.376;9.694;2023-11-21T07:00:03;4.30;;;3.03;;
6483;SDS011;3275;52.376;9.694;2023-11-21T07:02:34;4.63;;;3.20;;
6483;SDS011;3275;52.376;9.694;2023-11-21T07:05:00;8.60;;;3.80;;
6483;SDS011;3275;52.376;9.694;2023-11-21T07:07:27;4.60;;;3.10;;
6483;SDS011;3275;52.376;9.694;2023-11-21T07:09:54;4.83;;;3.70;;
6483;SDS011;3275;52.376;9.694;2023-11-21T07:12:22;8.23;;;3.90;;
6483;SDS011;3275;52.376;9.694;2023-11-21T07:14:50;11.70;;;3.87;;
6483;SDS011;3275;52.376;9.694;2023-11-21T07:17:17;7.50;;;3.43;;
6483;SDS011;3275;52.376;9.694;2023-11-21T07:19:44;6.57;;;3.60;;
6483;SDS011;3275;52.376;9.694;2023-11-21T07:22:10;6.73;;;3.20;;
6483;SDS011;3275;52.376;9.694;2023-11-21T07:24:39;6.17;;;3.73;;
6483;SDS011;3275;52.376;9.694;2023-11-21T07:27:06;5.83;;;3.07;;
6483;SDS011;3275;52.376;9.694;2023-11-21T07:29:34;7.80;;;3.40;;
6483;SDS011;3275;52.376;9.694;2023-11-21T07:32:01;4.70;;;3.07;;
6483;SDS011;3275;52.376;9.694;2023-11-21T07:34:28;6.87;;;3.90;;
6483;SDS011;3275;52.376;9.694;2023-11-21T07:36:55;7.77;;;3.70;;
6483;SDS011;3275;52.376;9.694;2023-11-21T07:39:21;6.33;;;3.13;;
6483;SDS011;3275;52.376;9.694;2023-11-21T07:41:48;5.70;;;2.90;;
6483;SDS011;3275;52.376;9.694;2023-11-21T07:44:15;5.03;;;3.10;;
6483;SDS011;3275;52.376;9.694;2023-11-21T07:46:43;7.57;;;3.27;;
6483;SDS011;3275;52.376;9.694;2023-11-21T07:49:10;6.80;;;4.00;;
6483;SDS011;3275;52.376;9.694;2023-11-21T07:51:39;5.33;;;3.37;;
6483;SDS011;3275;52.376;9.694;2023-11-21T07:54:06;10.80;;;4.13;;
6483;SDS011;3275;52.376;9.694;2023-11-21T07:56:33;5.70;;;3.30;;
6483;SDS011;3275;52.376;9.694;2023-11-21T07:58:59;4.43;;;3.27;;
6483;SDS011;3275;52.376;9.694;2023-11-21T08:01:26;7.33;;;4.20;;
6483;SDS011;3275;52.376;9.694;2023-11-21T08:03:54;6.70;;;4.50;;
6483;SDS011;3275;52.376;9.694;2023-11-21T08:06:24;7.33;;;4.07;;
6483;SDS011;3275;52.376;9.694;2023-11-21T08:08:51;8.97;;;4.30;;
6483;SDS011;3275;52.376;9.694;2023-11-21T08:11:18;8.93;;;5.13;;
6483;SDS011;3275;52.376;9.694;2023-11-21T08:13:44;6.53;;;3.93;;
6483;SDS011;3275;52.376;9.694;2023-11-21T08:16:12;8.17;;;5.10;;
6483;SDS011;3275;52.376;9.694;2023-11-21T08:18:38;6.93;;;4.50;;
6483;SDS011;3275;52.376;9.694;2023-11-21T08:21:07;16.00;;;5.60;;
6483;SDS011;3275;52.376;9.694;2023-11-21T08:23:34;9.63;;;5.20;;
6483;SDS011;3275;52.376;9.694;2023-11-21T08:26:01;12.20;;;6.60;;
6483;SDS011;3275;52.376;9.694;2023-11-21T08:28:28;12.10;;;5.60;;
6483;SDS011;3275;52.376;9.694;2023-11-21T08:30:55;8.27;;;5.50;;
6483;SDS011;3275;52.376;9.694;2023-11-21T08:33:21;10.20;;;6.23;;
6483;SDS011;3275;52.376;9.694;2023-11-21T08:35:48;11.30;;;6.93;;
6483;SDS011;3275;52.376;9.694;2023-11-21T08:38:16;9.93;;;6.20;;
6483;SDS011;3275;52.376;9.694;2023-11-21T08:40:43;12.23;;;6.10;;
6483;SDS011;3275;52.376;9.694;2023-11-21T08:43:10;12.10;;;6.03;;
6483;SDS011;3275;52.376;9.694;2023-11-21T08:45:37;14.20;;;5.83;;
6483;SDS011;3275;52.376;9.694;2023-11-21T08:48:04;17.67;;;7.43;;
6483;SDS011;3275;52.376;9.694;2023-11-21T08:50:31;9.00;;;6.07;;
6483;SDS011;3275;52.376;9.694;2023-11-21T08:52:57;11.13;;;6.50;;
6483;SDS011;3275;52.376;9.694;2023-11-21T08:55:25;10.00;;;6.17;;
6483;SDS011;3275;52.376;9.694;2023-11-21T08:57:52;10.90;;;5.80;;
6483;SDS011;3275;52.376;9.694;2023-11-21T09:00:19;9.53;;;6.80;;
6483;SDS011;3275;52.376;9.694;2023-11-21T09:02:47;10.47;;;5.97;;
6483;SDS011;3275;52.376;9.694;2023-11-21T09:05:14;10.27;;;6.40;;
6483;SDS011;3275;52.376;9.694;2023-11-21T09:07:41;9.57;;;6.10;;
6483;SDS011;3275;52.376;9.694;2023-11-21T09:10:08;13.20;;;6.63;;
6483;SDS011;3275;52.376;9.694;2023-11-21T09:12:37;8.80;;;5.50;;
6483;SDS011;3275;52.376;9.694;2023-11-21T09:15:04;10.10;;;5.17;;
6483;SDS011;3275;52.376;9.694;2023-11-21T09:17:32;10.17;;;5.67;;
6483;SDS011;3275;52.376;9.694;2023-11-21T09:19:59;7.00;;;5.17;;
6483;SDS011;3275;52.376;9.694;2023-11-21T09:22:28;11.17;;;5.83;;
6483;SDS011;3275;52.376;9.694;2023-11-21T09:24:58;12.13;;;5.57;;
6483;SDS011;3275;52.376;9.694;2023-11-21T09:27:24;9.83;;;6.13;;
6483;SDS011;3275;52.376;9.694;2023-11-21T09:29:53;8.10;;;5.57;;
6483;SDS011;3275;52.376;9.694;2023-11-21T09:32:20;10.20;;;5.60;;
6483;SDS011;3275;52.376;9.694;2023-11-21T09:34:47;8.00;;;5.40;;
6483;SDS011;3275;52.376;9.694;2023-11-21T09:37:14;8.07;;;4.97;;
6483;SDS011;3275;52.376;9.694;2023-11-21T09:39:40;9.03;;;4.63;;
6483;SDS011;3275;52.376;9.694;2023-11-21T09:42:08;6.80;;;4.53;;
6483;SDS011;3275;52.376;9.694;2023-11-21T09:44:42;7.87;;;5.00;;
6483;SDS011;3275;52.376;9.694;2023-11-21T09:47:15;7.67;;;5.23;;
6483;SDS011;3275;52.376;9.694;2023-11-21T09:49:42;7.10;;;4.03;;
6483;SDS011;3275;52.376;9.694;2023-11-21T09:52:15;9.03;;;5.40;;
6483;SDS011;3275;52.376;9.694;2023-11-21T09:54:50;10.47;;;4.77;;
6483;SDS011;3275;52.376;9.694;2023-11-21T09:57:18;7.90;;;5.20;;
6483;SDS011;3275;52.376;9.694;2023-11-21T09:59:46;8.57;;;4.67;;
6483;SDS011;3275;52.376;9.694;2023-11-21T10:02:17;6.63;;;4.60;;
6483;SDS011;3275;52.376;9.694;2023-11-21T10:04:46;8.40;;;4.80;;
6483;SDS011;3275;52.376;9.694;2023-11-21T10:07:13;11.67;;;5.10;;
6483;SDS011;3275;52.376;9.694;2023-11-21T10:09:42;7.80;;;4.70;;
6483;SDS011;3275;52.376;9.694;2023-11-21T10:12:09;7.67;;;4.17;;
6483;SDS011;3275;52.376;9.694;2023-11-21T10:14:40;8.60;;;5.20;;
6483;SDS011;3275;52.376;9.694;2023-11-21T10:17:09;6.80;;;4.33;;
6483;SDS011;3275;52.376;9.694;2023-11-21T10:19:38;8.53;;;4.53;;
6483;SDS011;3275;52.376;9.694;2023-11-21T10:22:05;7.23;;;4.20;;
6483;SDS011;3275;52.376;9.694;2023-11-21T10:24:33;6.07;;;4.30;;
6483;SDS011;3275;52.376;9.694;2023-11-21T10:27:00;6.60;;;4.13;;
6483;SDS011;3275;52.376;9.694;2023-11-21T10:29:28;7.83;;;4.60;;
6483;SDS011;3275;52.376;9.694;2023-11-21T10:31:55;8.13;;;4.27;;
6483;SDS011;3275;52.376;9.694;2023-11-21T10:34:23;9.50;;;4.90;;
6483;SDS011;3275;52.376;9.694;2023-11-21T10:36:53;15.83;;;3.57;;
6483;SDS011;3275;52.376;9.694;2023-11-21T10:39:22;4.77;;;3.40;;
6483;SDS011;3275;52.376;9.694;2023-11-21T10:41:52;5.00;;;3.57;;
6483;SDS011;3275;52.376;9.694;2023-11-21T10:44:21;5.73;;;3.63;;
6483;SDS011;3275;52.376;9.694;2023-11-21T10:46:49;5.90;;;3.87;;
6483;SDS011;3275;52.376;9.694;2023-11-21T10:49:17;7.10;;;4.53;;
6483;SDS011;3275;52.376;9.694;2023-11-21T10:51:44;7.73;;;4.80;;
6483;SDS011;3275;52.376;9.694;2023-11-21T10:54:16;8.03;;;5.60;;
6483;SDS011;3275;52.376;9.694;2023-11-21T10:56:43;6.97;;;4.67;;
6483;SDS011;3275;52.376;9.694;2023-11-21T10:59:11;6.27;;;4.20;;
6483;SDS011;3275;52.376;9.694;2023-11-21T11:01:40;7.10;;;3.97;;
6483;SDS011;3275;52.376;9.694;2023-11-21T11:04:08;6.17;;;4.50;;
6483;SDS011;3275;52.376;9.694;2023-11-21T11:06:39;6.80;;;4.07;;
6483;SDS011;3275;52.376;9.694;2023-11-21T11:09:07;5.97;;;4.30;;
6483;SDS011;3275;52.376;9.694;2023-11-21T11:11:39;7.53;;;4.07;;
6483;SDS011;3275;52.376;9.694;2023-11-21T11:14:06;7.77;;;4.70;;
6483;SDS011;3275;52.376;9.694;2023-11-21T11:16:35;6.80;;;3.80;;
6483;SDS011;3275;52.376;9.694;2023-11-21T11:19:03;5.27;;;3.40;;
6483;SDS011;3275;52.376;9.694;2023-11-21T11:21:32;6.90;;;4.20;;
6483;SDS011;3275;52.376;9.694;2023-11-21T11:24:13;6.47;;;4.23;;
6483;SDS011;3275;52.376;9.694;2023-11-21T11:26:55;5.10;;;3.40;;
6483;SDS011;3275;52.376;9.694;2023-11-21T11:29:28;6.03;;;3.60;;
6483;SDS011;3275;52.376;9.694;2023-11-21T11:32:03;6.73;;;3.63;;
6483;SDS011;3275;52.376;9.694;2023-11-21T11:34:36;6.27;;;3.57;;
6483;SDS011;3275;52.376;9.694;2023-11-21T11:37:10;6.57;;;4.10;;
6483;SDS011;3275;52.376;9.694;2023-11-21T11:39:38;4.50;;;3.03;;
6483;SDS011;3275;52.376;9.694;2023-11-21T11:42:11;5.67;;;3.77;;
6483;SDS011;3275;52.376;9.694;2023-11-21T11:44:48;4.87;;;3.00;;
6483;SDS011;3275;52.376;9.694;2023-11-21T11:47:20;5.23;;;3.40;;
6483;SDS011;3275;52.376;9.694;2023-11-21T11:49:56;5.27;;;3.03;;
6483;SDS011;3275;52.376;9.694;2023-11-21T11:52:31;6.60;;;3.70;;
6483;SDS011;3275;52.376;9.694;2023-11-21T11:54:59;5.57;;;3.47;;
6483;SDS011;3275;52.376;9.694;2023-11-21T11:57:27;6.43;;;3.20;;
6483;SDS011;3275;52.376;9.694;2023-11-21T12:00:06;5.97;;;3.60;;
6483;SDS011;3275;52.376;9.694;2023-11-21T12:02:41;5.13;;;3.50;;
6483;SDS011;3275;52.376;9.694;2023-11-21T12:05:08;7.17;;;3.60;;
6483;SDS011;3275;52.376;9.694;2023-11-21T12:07:46;3.53;;;2.60;;
6483;SDS011;3275;52.376;9.694;2023-11-21T12:10:14;5.10;;;2.53;;
6483;SDS011;3275;52.376;9.694;2023-11-21T12:12:45;5.90;;;3.00;;
6483;SDS011;3275;52.376;9.694;2023-11-21T12:15:13;5.00;;;3.33;;
6483;SDS011;3275;52.376;9.694;2023-11-21T12:17:41;6.10;;;3.37;;
6483;SDS011;3275;52.376;9.694;2023-11-21T12:20:09;3.60;;;2.87;;
6483;SDS011;3275;52.376;9.694;2023-11-21T12:22:41;5.37;;;3.10;;
6483;SDS011;3275;52.376;9.694;2023-11-21T12:25:09;4.33;;;3.23;;
6483;SDS011;3275;52.376;9.694;2023-11-21T12:27:41;5.13;;;3.30;;
6483;SDS011;3275;52.376;9.694;2023-11-21T12:30:14;3.53;;;2.80;;
6483;SDS011;3275;52.376;9.694;2023-11-21T12:32:42;5.00;;;3.30;;
6483;SDS011;3275;52.376;9.694;2023-11-21T12:35:11;6.20;;;3.33;;
6483;SDS011;3275;52.376;9.694;2023-11-21T12:37:38;5.70;;;3.70;;
6483;SDS011;3275;52.376;9.694;2023-11-21T12:40:08;7.27;;;4.03;;
6483;SDS011;3275;52.376;9.694;2023-11-21T12:42:37;5.00;;;3.43;;
6483;SDS011;3275;52.376;9.694;2023-11-21T12:45:10;4.67;;;3.53;;
6483;SDS011;3275;52.376;9.694;2023-11-21T12:47:45;5.40;;;3.90;;
6483;SDS011;3275;52.376;9.694;2023-11-21T12:50:13;6.93;;;4.10;;
6483;SDS011;3275;52.376;9.694;2023-11-21T12:52:41;5.47;;;3.80;;
6483;SDS011;3275;52.376;9.694;2023-11-21T12:55:09;5.57;;;3.40;;
6483;SDS011;3275;52.376;9.694;2023-11-21T12:57:40;3.87;;;3.30;;
6483;SDS011;3275;52.376;9.694;2023-11-21T13:00:11;9.57;;;4.30;;
6483;SDS011;3275;52.376;9.694;2023-11-21T13:02:50;6.97;;;4.20;;
6483;SDS011;3275;52.376;9.694;2023-11-21T13:05:23;6.77;;;4.13;;
6483;SDS011;3275;52.376;9.694;2023-11-21T13:07:53;6.17;;;4.30;;
6483;SDS011;3275;52.376;9.694;2023-11-21T13:10:22;6.77;;;4.37;;
6483;SDS011;3275;52.376;9.694;2023-11-21T13:12:54;7.00;;;3.63;;
6483;SDS011;3275;52.376;9.694;2023-11-21T13:15:24;6.30;;;4.03;;
6483;SDS011;3275;52.376;9.694;2023-11-21T13:17:52;6.97;;;3.30;;
6483;SDS011;3275;52.376;9.694;2023-11-21T13:20:21;6.00;;;3.70;;
6483;SDS011;3275;52.376;9.694;2023-11-21T13:22:48;5.73;;;4.00;;
6483;SDS011;3275;52.376;9.694;2023-11-21T13:25:15;7.00;;;3.50;;
6483;SDS011;3275;52.376;9.694;2023-11-21T13:27:44;5.33;;;3.30;;
6483;SDS011;3275;52.376;9.694;2023-11-21T13:30:12;8.03;;;4.43;;
6483;SDS011;3275;52.376;9.694;2023-11-21T13:32:44;8.60;;;4.20;;
6483;SDS011;3275;52.376;9.694;2023-11-21T13:35:12;6.27;;;4.30;;
6483;SDS011;3275;52.376;9.694;2023-11-21T13:37:46;6.97;;;3.93;;
6483;SDS011;3275;52.376;9.694;2023-11-21T13:40:16;5.87;;;3.47;;
6483;SDS011;3275;52.376;9.694;2023-11-21T13:42:47;4.37;;;3.13;;
6483;SDS011;3275;52.376;9.694;2023-11-21T13:45:18;5.83;;;4.20;;
6483;SDS011;3275;52.376;9.694;2023-11-21T13:47:48;5.70;;;3.77;;
6483;SDS011;3275;52.376;9.694;2023-11-21T13:50:17;7.07;;;3.50;;
6483;SDS011;3275;52.376;9.694;2023-11-21T13:52:47;7.90;;;4.57;;
6483;SDS011;3275;52.376;9.694;2023-11-21T13:55:14;5.30;;;4.00;;
6483;SDS011;3275;52.376;9.694;2023-11-21T13:57:41;6.13;;;3.50;;
6483;SDS011;3275;52.376;9.694;2023-11-21T14:00:14;5.13;;;3.40;;
6483;SDS011;3275;52.376;9.694;2023-11-21T14:03:03;6.07;;;3.53;;
6483;SDS011;3275;52.376;9.694;2023-11-21T14:05:34;4.47;;;3.40;;
6483;SDS011;3275;52.376;9.694;2023-11-21T14:08:00;5.63;;;3.00;;
6483;SDS011;3275;52.376;9.694;2023-11-21T14:10:29;4.03;;;3.10;;
6483;SDS011;3275;52.376;9.694;2023-11-21T14:13:02;5.73;;;2.63;;
6483;SDS011;3275;52.376;9.694;2023-11-21T14:15:30;3.70;;;2.50;;
6483;SDS011;3275;52.376;9.694;2023-11-21T14:17:58;4.43;;;2.67;;
6483;SDS011;3275;52.376;9.694;2023-11-21T14:20:28;4.93;;;3.30;;
6483;SDS011;3275;52.376;9.694;2023-11-21T14:22:55;4.47;;;2.90;;
6483;SDS011;3275;52.376;9.694;2023-11-21T14:25:22;6.60;;;3.40;;
6483;SDS011;3275;52.376;9.694;2023-11-21T14:27:49;4.50;;;3.30;;
6483;SDS011;3275;52.376;9.694;2023-11-21T14:30:16;4.33;;;3.10;;
6483;SDS011;3275;52.376;9.694;2023-11-21T14:32:45;9.10;;;3.70;;
6483;SDS011;3275;52.376;9.694;2023-11-21T14:35:12;6.43;;;3.60;;
6483;SDS011;3275;52.376;9.694;2023-11-21T14:37:40;5.37;;;2.77;;
6483;SDS011;3275;52.376;9.694;2023-11-21T14:40:07;2.93;;;2.47;;
6483;SDS011;3275;52.376;9.694;2023-11-21T14:42:35;3.87;;;3.10;;
6483;SDS011;3275;52.376;9.694;2023-11-21T14:45:05;5.80;;;3.23;;
6483;SDS011;3275;52.376;9.694;2023-11-21T14:47:33;6.73;;;3.63;;
6483;SDS011;3275;52.376;9.694;2023-11-21T14:49:59;4.80;;;3.20;;
6483;SDS011;3275;52.376;9.694;2023-11-21T14:52:48;5.20;;;3.50;;
6483;SDS011;3275;52.376;9.694;2023-11-21T14:55:20;6.20;;;3.70;;
6483;SDS011;3275;52.376;9.694;2023-11-21T14:57:56;5.17;;;3.63;;
6483;SDS011;3275;52.376;9.694;2023-11-21T15:00:28;5.27;;;3.47;;
6483;SDS011;3275;52.376;9.694;2023-11-21T15:03:12;4.63;;;3.20;;
6483;SDS011;3275;52.376;9.694;2023-11-21T15:06:02;5.57;;;3.57;;
6483;SDS011;3275;52.376;9.694;2023-11-21T15:08:45;6.80;;;3.87;;
6483;SDS011;3275;52.376;9.694;2023-11-21T15:11:21;5.77;;;3.30;;
6483;SDS011;3275;52.376;9.694;2023-11-21T15:13:52;3.17;;;2.40;;
6483;SDS011;3275;52.376;9.694;2023-11-21T15:16:19;4.27;;;3.10;;
6483;SDS011;3275;52.376;9.694;2023-11-21T15:18:46;5.63;;;2.40;;
6483;SDS011;3275;52.376;9.694;2023-11-21T15:21:12;7.07;;;3.30;;
6483;SDS011;3275;52.376;9.694;2023-11-21T15:23:40;4.37;;;3.00;;
6483;SDS011;3275;52.376;9.694;2023-11-21T15:26:08;3.80;;;3.43;;
6483;SDS011;3275;52.376;9.694;2023-11-21T15:28:35;4.67;;;3.80;;
6483;SDS011;3275;52.376;9.694;2023-11-21T15:31:02;5.50;;;3.43;;
6483;SDS011;3275;52.376;9.694;2023-11-21T15:33:29;6.40;;;3.60;;
6483;SDS011;3275;52.376;9.694;2023-11-21T15:35:56;3.77;;;2.90;;
6483;SDS011;3275;52.376;9.694;2023-11-21T15:38:24;6.33;;;3.53;;
6483;SDS011;3275;52.376;9.694;2023-11-21T15:40:50;6.53;;;2.90;;
6483;SDS011;3275;52.376;9.694;2023-11-21T15:43:19;5.63;;;3.60;;
6483;SDS011;3275;52.376;9.694;2023-11-21T15:45:46;4.63;;;3.50;;
6483;SDS011;3275;52.376;9.694;2023-11-21T15:48:12;5.57;;;3.50;;
6483;SDS011;3275;52.376;9.694;2023-11-21T15:50:41;3.33;;;2.73;;
6483;SDS011;3275;52.376;9.694;2023-11-21T15:53:08;6.20;;;2.87;;
6483;SDS011;3275;52.376;9.694;2023-11-21T15:55:34;4.70;;;3.07;;
6483;SDS011;3275;52.376;9.694;2023-11-21T15:58:07;3.60;;;2.40;;
6483;SDS011;3275;52.376;9.694;2023-11-21T16:00:35;5.53;;;3.50;;
6483;SDS011;3275;52.376;9.694;2023-11-21T16:03:02;8.77;;;3.53;;
6483;SDS011;3275;52.376;9.694;2023-11-21T16:05:29;3.73;;;2.77;;
6483;SDS011;3275;52.376;9.694;2023-11-21T16:07:56;4.20;;;3.20;;
6483;SDS011;3275;52.376;9.694;2023-11-21T16:10:23;5.17;;;3.53;;
6483;SDS011;3275;52.376;9.694;2023-11-21T16:12:49;6.10;;;3.23;;
6483;SDS011;3275;52.376;9.694;2023-11-21T16:15:16;7.60;;;3.17;;
6483;SDS011;3275;52.376;9.694;2023-11-21T16:17:45;4.90;;;3.40;;
6483;SDS011;3275;52.376;9.694;2023-11-21T16:20:12;3.93;;;2.73;;
6483;SDS011;3275;52.376;9.694;2023-11-21T16:22:40;5.77;;;2.77;;
6483;SDS011;3275;52.376;9.694;2023-11-21T16:25:07;4.83;;;2.70;;
6483;SDS011;3275;52.376;9.694;2023-11-21T16:27:37;4.47;;;2.83;;
6483;SDS011;3275;52.376;9.694;2023-11-21T16:30:04;5.73;;;4.10;;
6483;SDS011;3275;52.376;9.694;2023-11-21T16:32:34;7.40;;;3.13;;
6483;SDS011;3275;52.376;9.694;2023-11-21T16:35:03;4.50;;;3.07;;
6483;SDS011;3275;52.376;9.694;2023-11-21T16:37:30;5.50;;;3.13;;
6483;SDS011;3275;52.376;9.694;2023-11-21T16:39:57;3.97;;;2.90;;
6483;SDS011;3275;52.376;9.694;2023-11-21T16:42:24;4.47;;;3.13;;
6483;SDS011;3275;52.376;9.694;2023-11-21T16:44:52;5.03;;;3.00;;
6483;SDS011;3275;52.376;9.694;2023-11-21T16:47:19;4.33;;;2.83;;
6483;SDS011;3275;52.376;9.694;2023-11-21T16:49:48;6.50;;;3.60;;
6483;SDS011;3275;52.376;9.694;2023-11-21T16:52:16;4.30;;;3.67;;
6483;SDS011;3275;52.376;9.694;2023-11-21T16:54:47;6.30;;;2.80;;
6483;SDS011;3275;52.376;9.694;2023-11-21T16:57:14;4.00;;;2.80;;
6483;SDS011;3275;52.376;9.694;2023-11-21T16:59:40;7.20;;;3.10;;
6483;SDS011;3275;52.376;9.694;2023-11-21T17:02:07;4.50;;;3.13;;
6483;SDS011;3275;52.376;9.694;2023-11-21T17:04:35;2.93;;;2.60;;
6483;SDS011;3275;52.376;9.694;2023-11-21T17:07:06;5.80;;;3.10;;
6483;SDS011;3275;52.376;9.694;2023-11-21T17:09:35;4.40;;;2.43;;
6483;SDS011;3275;52.376;9.694;2023-11-21T17:12:01;3.83;;;2.77;;
6483;SDS011;3275;52.376;9.694;2023-11-21T17:14:30;5.90;;;3.00;;
6483;SDS011;3275;52.376;9.694;2023-11-21T17:16:57;5.40;;;3.57;;
6483;SDS011;3275;52.376;9.694;2023-11-21T17:19:24;3.00;;;2.67;;
6483;SDS011;3275;52.376;9.694;2023-11-21T17:21:56;7.20;;;3.03;;
6483;SDS011;3275;52.376;9.694;2023-11-21T17:24:22;4.00;;;2.70;;
6483;SDS011;3275;52.376;9.694;2023-11-21T17:26:50;3.60;;;2.80;;
6483;SDS011;3275;52.376;9.694;2023-11-21T17:29:17;5.53;;;2.50;;
6483;SDS011;3275;52.376;9.694;2023-11-21T17:31:47;5.40;;;2.70;;
6483;SDS011;3275;52.376;9.694;2023-11-21T17:34:13;5.50;;;2.80;;
6483;SDS011;3275;52.376;9.694;2023-11-21T17:36:44;3.70;;;3.10;;
6483;SDS011;3275;52.376;9.694;2023-11-21T17:39:11;18.30;;;3.17;;
6483;SDS011;3275;52.376;9.694;2023-11-21T17:41:38;4.00;;;3.07;;
6483;SDS011;3275;52.376;9.694;2023-11-21T17:44:06;5.70;;;3.27;;
6483;SDS011;3275;52.376;9.694;2023-11-21T17:46:33;4.30;;;2.40;;
6483;SDS011;3275;52.376;9.694;2023-11-21T17:49:00;3.70;;;2.90;;
6483;SDS011;3275;52.376;9.694;2023-11-21T17:51:27;3.37;;;2.33;;
6483;SDS011;3275;52.376;9.694;2023-11-21T17:53:54;3.80;;;2.53;;
6483;SDS011;3275;52.376;9.694;2023-11-21T17:56:26;2.90;;;2.70;;
6483;SDS011;3275;52.376;9.694;2023-11-21T17:58:53;3.83;;;2.70;;
6483;SDS011;3275;52.376;9.694;2023-11-21T18:01:23;3.10;;;2.63;;
6483;SDS011;3275;52.376;9.694;2023-11-21T18:03:55;6.47;;;3.50;;
6483;SDS011;3275;52.376;9.694;2023-11-21T18:06:23;4.97;;;2.90;;
6483;SDS011;3275;52.376;9.694;2023-11-21T18:08:50;4.33;;;3.07;;
6483;SDS011;3275;52.376;9.694;2023-11-21T18:11:17;5.90;;;3.33;;
6483;SDS011;3275;52.376;9.694;2023-11-21T18:13:43;5.27;;;3.40;;
6483;SDS011;3275;52.376;9.694;2023-11-21T18:16:10;6.40;;;3.10;;
6483;SDS011;3275;52.376;9.694;2023-11-21T18:18:39;3.23;;;2.50;;
6483;SDS011;3275;52.376;9.694;2023-11-21T18:21:05;4.13;;;2.83;;
6483;SDS011;3275;52.376;9.694;2023-11-21T18:23:33;3.13;;;2.70;;
6483;SDS011;3275;52.376;9.694;2023-11-21T18:26:00;5.57;;;3.07;;
6483;SDS011;3275;52.376;9.694;2023-11-21T18:28:26;5.70;;;3.50;;
6483;SDS011;3275;52.376;9.694;2023-11-21T18:30:53;5.30;;;3.67;;
6483;SDS011;3275;52.376;9.694;2023-11-21T18:33:20;3.63;;;2.60;;
6483;SDS011;3275;52.376;9.694;2023-11-21T18:35:49;3.63;;;2.70;;
6483;SDS011;3275;52.376;9.694;2023-11-21T18:38:16;3.80;;;3.10;;
6483;SDS011;3275;52.376;9.694;2023-11-21T18:40:42;6.47;;;3.10;;
6483;SDS011;3275;52.376;9.694;2023-11-21T18:43:09;4.43;;;3.00;;
6483;SDS011;3275;52.376;9.694;2023-11-21T18:45:37;4.83;;;2.90;;
6483;SDS011;3275;52.376;9.694;2023-11-21T18:48:04;5.23;;;3.73;;
6483;SDS011;3275;52.376;9.694;2023-11-21T18:50:30;5.07;;;3.37;;
6483;SDS011;3275;52.376;9.694;2023-11-21T18:53:01;6.70;;;3.50;;
6483;SDS011;3275;52.376;9.694;2023-11-21T18:55:28;4.57;;;3.07;;
6483;SDS011;3275;52.376;9.694;2023-11-21T18:57:55;4.93;;;3.60;;
6483;SDS011;3275;52.376;9.694;2023-11-21T19:00:22;4.37;;;3.00;;
6483;SDS011;3275;52.376;9.694;2023-11-21T19:02:49;7.07;;;3.47;;
6483;SDS011;3275;52.376;9.694;2023-11-21T19:05:15;7.07;;;3.40;;
6483;SDS011;3275;52.376;9.694;2023-11-21T19:07:42;4.80;;;3.03;;
6483;SDS011;3275;52.376;9.694;2023-11-21T19:10:11;5.97;;;3.30;;
6483;SDS011;3275;52.376;9.694;2023-11-21T19:12:37;5.90;;;3.33;;
6483;SDS011;3275;52.376;9.694;2023-11-21T19:15:05;8.13;;;3.90;;
6483;SDS011;3275;52.376;9.694;2023-11-21T19:17:34;5.77;;;3.40;;
6483;SDS011;3275;52.376;9.694;2023-11-21T19:20:01;7.87;;;4.07;;
6483;SDS011;3275;52.376;9.694;2023-11-21T19:22:28;4.50;;;2.90;;
6483;SDS011;3275;52.376;9.694;2023-11-21T19:24:55;6.60;;;3.00;;
6483;SDS011;3275;52.376;9.694;2023-11-21T19:27:23;9.97;;;3.50;;
6483;SDS011;3275;52.376;9.694;2023-11-21T19:29:49;10.17;;;3.13;;
6483;SDS011;3275;52.376;9.694;2023-11-21T19:32:16;4.43;;;2.90;;
6483;SDS011;3275;52.376;9.694;2023-11-21T19:34:43;3.53;;;2.50;;
6483;SDS011;3275;52.376;9.694;2023-11-21T19:37:10;4.43;;;2.90;;
6483;SDS011;3275;52.376;9.694;2023-11-21T19:39:37;5.50;;;3.17;;
6483;SDS011;3275;52.376;9.694;2023-11-21T19:42:04;4.40;;;2.80;;
6483;SDS011;3275;52.376;9.694;2023-11-21T19:44:32;5.80;;;2.97;;
6483;SDS011;3275;52.376;9.694;2023-11-21T19:47:01;2.90;;;2.17;;
6483;SDS011;3275;52.376;9.694;2023-11-21T19:49:28;4.27;;;2.87;;
6483;SDS011;3275;52.376;9.694;2023-11-21T19:51:55;6.50;;;3.27;;
6483;SDS011;3275;52.376;9.694;2023-11-21T19:54:21;5.43;;;3.57;;
6483;SDS011;3275;52.376;9.694;2023-11-21T19:56:48;3.53;;;2.70;;
6483;SDS011;3275;52.376;9.694;2023-11-21T19:59:15;4.47;;;3.00;;
6483;SDS011;3275;52.376;9.694;2023-11-21T20:01:43;4.87;;;2.87;;
6483;SDS011;3275;52.376;9.694;2023-11-21T20:04:10;16.77;;;2.53;;
6483;SDS011;3275;52.376;9.694;2023-11-21T20:06:37;3.70;;;2.37;;
6483;SDS011;3275;52.376;9.694;2023-11-21T20:09:05;3.93;;;2.50;;
6483;SDS011;3275;52.376;9.694;2023-11-21T20:11:31;3.53;;;2.43;;
6483;SDS011;3275;52.376;9.694;2023-11-21T20:13:58;8.60;;;2.03;;
6483;SDS011;3275;52.376;9.694;2023-11-21T20:16:25;5.07;;;2.70;;
6483;SDS011;3275;52.376;9.694;2023-11-21T20:18:53;3.17;;;2.10;;
6483;SDS011;3275;52.376;9.694;2023-11-21T20:21:20;4.03;;;2.13;;
6483;SDS011;3275;52.376;9.694;2023-11-21T20:23:47;5.83;;;2.83;;
6483;SDS011;3275;52.376;9.694;2023-11-21T20:26:19;3.27;;;2.13;;
6483;SDS011;3275;52.376;9.694;2023-11-21T20:28:47;2.70;;;1.93;;
6483;SDS011;3275;52.376;9.694;2023-11-21T20:31:15;4.47;;;3.17;;
6483;SDS011;3275;52.376;9.694;2023-11-21T20:33:41;4.63;;;2.90;;
6483;SDS011;3275;52.376;9.694;2023-11-21T20:36:10;4.17;;;2.77;;
6483;SDS011;3275;52.376;9.694;2023-11-21T20:38:37;4.10;;;2.60;;
6483;SDS011;3275;52.376;9.694;2023-11-21T20:41:04;4.47;;;2.00;;
6483;SDS011;3275;52.376;9.694;2023-11-21T20:43:36;5.83;;;2.40;;
6483;SDS011;3275;52.376;9.694;2023-11-21T20:46:03;4.63;;;2.30;;
6483;SDS011;3275;52.376;9.694;2023-11-21T20:48:31;3.43;;;2.37;;
6483;SDS011;3275;52.376;9.694;2023-11-21T20:50:58;4.97;;;2.40;;
6483;SDS011;3275;52.376;9.694;2023-11-21T20:53:26;3.60;;;2.50;;
6483;SDS011;3275;52.376;9.694;2023-11-21T20:55:53;4.80;;;2.37;;
6483;SDS011;3275;52.376;9.694;2023-11-21T20:58:20;4.30;;;2.70;;
6483;SDS011;3275;52.376;9.694;2023-11-21T21:00:47;3.80;;;2.43;;
6483;SDS011;3275;52.376;9.694;2023-11-21T21:03:14;5.00;;;2.50;;
6483;SDS011;3275;52.376;9.694;2023-11-21T21:05:41;7.17;;;2.50;;
6483;SDS011;3275;52.376;9.694;2023-11-21T21:08:07;5.40;;;2.43;;
6483;SDS011;3275;52.376;9.694;2023-11-21T21:10:37;4.10;;;2.43;;
6483;SDS011;3275;52.376;9.694;2023-11-21T21:13:06;3.53;;;2.60;;
6483;SDS011;3275;52.376;9.694;2023-11-21T21:15:33;2.93;;;2.10;;
6483;SDS011;3275;52.376;9.694;2023-11-21T21:18:00;6.10;;;2.70;;
6483;SDS011;3275;52.376;9.694;2023-11-21T21:20:30;2.83;;;2.40;;
6483;SDS011;3275;52.376;9.694;2023-11-21T21:22:57;4.80;;;2.67;;
6483;SDS011;3275;52.376;9.694;2023-11-21T21:25:25;3.57;;;2.10;;
6483;SDS011;3275;52.376;9.694;2023-11-21T21:27:53;3.20;;;2.50;;
6483;SDS011;3275;52.376;9.694;2023-11-21T21:30:19;4.53;;;2.37;;
6483;SDS011;3275;52.376;9.694;2023-11-21T21:32:46;3.90;;;2.67;;
6483;SDS011;3275;52.376;9.694;2023-11-21T21:35:13;4.43;;;2.53;;
6483;SDS011;3275;52.376;9.694;2023-11-21T21:37:41;2.80;;;2.10;;
6483;SDS011;3275;52.376;9.694;2023-11-21T21:40:08;3.43;;;2.63;;
6483;SDS011;3275;52.376;9.694;2023-11-21T21:42:36;5.63;;;2.60;;
6483;SDS011;3275;52.376;9.694;2023-11-21T21:45:05;4.03;;;2.57;;
6483;SDS011;3275;52.376;9.694;2023-11-21T21:47:32;5.57;;;2.80;;
6483;SDS011;3275;52.376;9.694;2023-11-21T21:49:59;3.53;;;2.33;;
6483;SDS011;3275;52.376;9.694;2023-11-21T21:52:32;3.77;;;2.27;;
6483;SDS011;3275;52.376;9.694;2023-11-21T21:55:00;4.30;;;2.70;;
6483;SDS011;3275;52.376;9.694;2023-11-21T21:57:27;6.47;;;2.73;;
6483;SDS011;3275;52.376;9.694;2023-11-21T21:59:54;3.23;;;2.10;;
6483;SDS011;3275;52.376;9.694;2023-11-21T22:02:22;5.90;;;2.30;;
6483;SDS011;3275;52.376;9.694;2023-11-21T22:04:49;3.90;;;2.30;;
6483;SDS011;3275;52.376;9.694;2023-11-21T22:07:15;5.77;;;2.53;;
6483;SDS011;3275;52.376;9.694;2023-11-21T22:09:42;5.97;;;2.90;;
6483;SDS011;3275;52.376;9.694;2023-11-21T22:12:09;4.90;;;2.53;;
6483;SDS011;3275;52.376;9.694;2023-11-21T22:14:36;2.87;;;1.90;;
6483;SDS011;3275;52.376;9.694;2023-11-21T22:17:03;6.67;;;2.80;;